Latest Coastal Weather Observations for Merimbula

IDN60701

Issued at 8:05 pm EDT Saturday 22 November 2014 (issued every 10 minutes, with the page automatically refreshed every 10 minutes)

About coastal observations | Map of coastal stations | Coastal observations for NSW | Marine services | Other Formats
Station Details ID: 069147 Name: MERIMBULA AIRPORT AWS Lat: -36.91 Lon: 149.90 Height: 1.5 m
Data from the previous 72 hours. | See also: Recent months at Merimbula
Date/Time
EDT
Temp

°C
Wind Pressure Rain
since 9am
mm
Weather Cloud Vis
km
Sea
Height
m
Swell
Dir
 
Speed
knots
Gust
knots
hPa Trend Height
m
Period
s
Dir
22/08:00pm 19.4 N 3 8 1011.0 - 0.0 - - 10 - - - -
22/07:30pm 19.5 NNE 6 10 1010.8 - 0.0 - - 10 - - - -
22/07:00pm 19.9 NE 8 14 1010.8 - 0.0 - - 10 - - - -
22/06:30pm 20.1 NNE 8 14 1010.9 - 0.0 - - 10 - - - -
22/06:00pm 21.1 NE 10 16 1010.7 - 0.0 - - 10 - - - -
22/05:30pm 21.8 NE 9 14 1010.7 - 0.0 - - 10 - - - -
22/05:00pm 21.6 NE 10 16 1010.9 - 0.0 - - 10 - - - -
22/04:30pm 21.9 NE 9 15 1011.1 - 0.0 - - 10 - - - -
22/04:00pm 22.2 NE 11 17 1011.3 - 0.0 - - 10 - - - -
22/03:30pm 22.0 ENE 12 17 1011.5 - 0.0 - - 10 - - - -
22/03:00pm 22.6 NE 11 18 1011.2 - 0.0 - - 10 - - - -
22/02:30pm 22.2 NE 12 20 1011.2 - 0.0 - - 10 - - - -
22/02:00pm 22.8 NE 13 22 1011.5 - 0.0 - - 10 - - - -
22/01:30pm 23.0 NE 13 19 1011.6 - 0.0 - - 10 - - - -
22/01:00pm 23.6 NE 11 20 1012.0 - 0.0 - - 10 - - - -
22/12:30pm 22.8 NNE 11 19 1012.3 - 0.0 - Partly cloudy 10 - - - -
22/12:00pm 22.7 NE 11 18 1012.7 - 0.0 - Mostly clear 10 - - - -
22/11:30am 21.8 NE 11 19 1013.0 - 0.0 - Partly cloudy 10 - - - -
22/11:00am 21.4 NE 10 16 1013.5 - 0.0 - Partly cloudy 10 - - - -
22/10:30am 22.3 NE 9 14 1013.7 - 0.0 - Partly cloudy 10 - - - -
22/10:00am 21.5 NE 11 17 1013.9 - 0.0 - Partly cloudy 10 - - - -
22/09:30am 21.6 NE 11 16 1014.2 - 0.0 - Partly cloudy 10 - - - -
22/09:00am 21.4 NNE 7 13 1014.3 - 0.0 - Partly cloudy 10 - - - -
22/08:30am 19.9 N 5 10 1014.3 - 0.0 - Partly cloudy 10 - - - -
22/08:00am 18.5 N 6 9 1014.5 - 0.0 - Cloudy 10 - - - -
22/07:30am 18.3 N 6 9 1014.5 - 0.0 - Cloudy 10 - - - -
22/07:00am 18.0 NNE 5 8 1014.3 - 0.0 - Cloudy 10 - - - -
22/06:30am 17.7 NNE 5 8 1014.4 - 0.0 - Partly cloudy 10 - - - -
22/06:00am 17.4 NE 5 8 1014.2 - 0.0 - Cloudy 10 - - - -
22/05:30am 17.3 NE 5 8 1014.1 - 0.0 - Cloudy 10 - - - -
22/05:00am 17.4 NE 5 7 1014.1 - 0.0 - Cloudy 10 - - - -
22/04:30am 17.2 NE 4 7 1013.8 - 0.0 - Cloudy 10 - - - -
22/04:00am 17.1 N 3 5 1013.9 - 0.0 - Cloudy 10 - - - -
22/03:30am 17.2 NNW 5 7 1013.7 - 0.0 - Partly cloudy 10 - - - -
22/03:00am 16.8 N 1 4 1013.7 - 0.0 - Cloudy 10 - - - -
22/02:30am 16.7 CALM 0 0 1014.1 - 0.0 - Partly cloudy 10 - - - -
22/02:00am 16.7 NNE 4 6 1014.3 - 0.0 - Partly cloudy 10 - - - -
22/01:30am 16.8 CALM 0 0 1014.6 - 0.0 - Partly cloudy 6 - - - -
22/01:00am 17.2 CALM 0 0 1014.6 - 0.0 - Cloudy 10 - - - -
22/12:30am 17.2 CALM 0 0 1014.8 - 0.0 - Cloudy 10 - - - -
22/12:00am 17.4 SE 0 0 1014.9 - 0.0 - Cloudy 10 - - - -
 
Date/Time
EDT
Temp

°C
Wind Pressure Rain
since 9am
mm
Weather Cloud Vis
km
Sea
Height
m
Swell
Dir
 
Speed
knots
Gust
knots
hPa Trend Height
m
Period
s
Dir
21/11:30pm 17.5 CALM 0 0 1014.9 - 0.0 - Cloudy 10 - - - -
21/11:00pm 17.6 SSE 6 8 1014.8 - 0.0 - Cloudy 10 - - - -
21/10:30pm 18.0 SE 6 9 1014.4 - 0.0 - Cloudy 10 - - - -
21/10:00pm 18.8 SSE 1 5 1014.2 - 0.0 - Cloudy 10 - - - -
21/09:30pm 18.9 SSW 6 9 1013.8 - 0.0 - Cloudy 10 - - - -
21/09:00pm 19.1 S 7 8 1013.3 - 0.0 - Cloudy 10 - - - -
21/08:30pm 19.3 S 8 13 1012.6 - 0.0 - Cloudy 10 - - - -
21/08:00pm 19.5 S 8 12 1012.0 - 0.0 - Partly cloudy 10 - - - -
21/07:30pm 19.5 S 7 11 1011.3 - 0.0 - - 10 - - - -
21/07:00pm 20.4 S 11 15 1010.5 - 0.0 - - 10 - - - -
21/06:30pm 21.3 S 13 20 1009.8 - 0.0 - - 10 - - - -
21/06:00pm 22.3 SSW 10 16 1008.9 - 0.0 - - 10 - - - -
21/05:30pm 23.0 SSW 10 15 1008.4 - 0.0 - - 10 - - - -
21/05:00pm 22.5 S 14 19 1007.9 - 0.0 - - 10 - - - -
21/04:30pm 23.2 SSW 15 22 1007.5 - 0.0 - - 10 - - - -
21/04:00pm 24.3 SSW 13 20 1007.1 - 0.0 - - 10 - - - -
21/03:30pm 25.1 SSE 13 21 1006.8 - 0.0 - - 10 - - - -
21/03:00pm 25.4 SE 12 17 1006.5 - 0.0 - - 10 - - - -
21/02:30pm 26.0 SE 9 13 1006.3 - 0.0 - - 10 - - - -
21/02:00pm 25.8 SSE 12 18 1006.5 - 0.0 - - 10 - - - -
21/01:30pm 26.0 SSE 13 17 1006.2 - 0.0 - - 10 - - - -
21/01:00pm 25.8 SE 10 15 1006.3 - 0.0 - Partly cloudy 10 - - - -
21/12:30pm 23.2 SE 9 13 1006.4 - 0.0 - Partly cloudy 10 - - - -
21/12:00pm 23.9 E 7 11 1006.2 - 0.0 - Partly cloudy 10 - - - -
21/11:30am 24.3 ESE 8 14 1006.0 - 0.0 - - 10 - - - -
21/11:00am 25.8 E 7 12 1006.1 - 0.0 - - 10 - - - -
21/10:30am 25.4 ESE 8 12 1006.2 - 0.0 - - 10 - - - -
21/10:00am 24.9 ESE 7 9 1006.3 - 0.0 - - 10 - - - -
21/09:30am 25.3 ESE 7 9 1006.3 - 0.0 - - 10 - - - -
21/09:00am 23.6 SSE 13 18 1006.2 - 0.0 - Mostly clear 10 - - - -
21/08:30am 22.4 NW 4 6 1005.8 - 0.0 - Partly cloudy 10 - - - -
21/08:00am 20.7 CALM 0 0 1005.7 - 0.0 - - 10 - - - -
21/07:30am 19.0 N 3 4 1005.5 - 0.0 - - 10 - - - -
21/07:00am 18.4 CALM 0 3 1005.3 - 0.0 - - 10 - - - -
21/06:30am 17.8 NNW 1 6 1005.0 - 0.0 - - 10 - - - -
21/06:00am 17.2 CALM 0 0 1004.9 - 0.0 - Mostly cloudy 10 - - - -
21/05:30am 17.5 NW 4 6 1004.9 - 0.0 - - 10 - - - -
21/05:00am 17.4 NW 4 7 1004.7 - 0.0 - - 10 - - - -
21/04:30am 17.2 CALM 0 0 1004.5 - 0.0 - - 10 - - - -
21/04:00am 17.7 CALM 0 0 1005.6 - 0.0 - - 10 - - - -
21/03:30am 17.9 CALM 0 0 1006.4 - 0.0 - - 10 - - - -
21/03:00am 18.2 CALM 0 0 1006.4 - 0.0 - Mostly cloudy 10 - - - -
21/02:30am 18.9 CALM 0 0 1006.8 - 0.0 - - 10 - - - -
21/02:00am 19.7 CALM 0 0 1007.5 - 0.0 - - 10 - - - -
21/01:30am 20.3 SSE 5 8 1007.1 - 0.0 - - 10 - - - -
21/01:00am 20.5 SSE 6 9 1007.3 - 0.0 - - 10 - - - -
21/12:30am 21.4 S 6 10 1007.4 - 0.0 - - 10 - - - -
21/12:00am 21.6 S 7 12 1007.6 - 0.0 - Partly cloudy 10 - - - -
 
Date/Time
EDT
Temp

°C
Wind Pressure Rain
since 9am
mm
Weather Cloud Vis
km
Sea
Height
m
Swell
Dir
 
Speed
knots
Gust
knots
hPa Trend Height
m
Period
s
Dir
20/11:30pm 21.6 S 7 11 1007.6 - 0.0 - - 10 - - - -
20/11:00pm 20.1 S 6 13 1007.9 - 0.0 - - 10 - - - -
20/10:30pm 19.7 CALM 0 0 1007.1 - 0.0 - - 8 - - - -
20/10:00pm 19.8 ENE 4 5 1006.9 - 0.0 - - 7 - - - -
20/09:30pm 19.6 CALM 0 0 1007.2 - 0.0 - - 9 - - - -
20/09:00pm 19.9 CALM 0 0 1006.8 - 0.0 - Cloudy 8 - - - -
20/08:30pm 20.4 CALM 0 0 1006.6 - 0.0 - - 10 - - - -
20/08:00pm 20.7 E 4 5 1006.4 - 0.0 - - 8 - - - -
20/07:30pm 21.0 E 1 5 1006.6 - 0.0 - - 10 - - - -
20/07:00pm 21.5 SSE 3 5 1006.3 - 0.0 - - 10 - - - -
20/06:30pm 21.8 ESE 5 6 1006.0 - 0.0 - - 10 - - - -
20/06:00pm 21.9 ESE 6 8 1005.8 - 0.0 - Mostly cloudy 10 - - - -
20/05:30pm 22.6 ESE 7 9 1005.6 - 0.0 - - 10 - - - -
20/05:00pm 24.2 ENE 6 11 1005.6 - 0.0 - - 10 - - - -
20/04:30pm 25.7 ENE 8 12 1005.4 - 0.0 - - 10 - - - -
20/04:00pm 28.6 NE 9 15 1005.4 - 0.0 - - 10 - - - -
20/03:30pm 28.8 NE 9 15 1005.5 - 0.0 - - 10 - - - -
20/03:00pm 29.2 NE 9 13 1005.9 - 0.0 - - 10 - - - -
20/02:30pm 27.4 NE 10 15 1006.3 - 0.0 - - 10 - - - -
20/02:00pm 26.8 NE 9 14 1006.5 - 0.0 - - 10 - - - -
20/01:30pm 26.9 NE 10 14 1006.9 - 0.0 - - 10 - - - -
20/01:00pm 25.6 NE 11 15 1007.3 - 0.0 - - 10 - - - -
20/12:30pm 25.4 NE 9 14 1007.9 - 0.0 - - 10 - - - -
20/12:00pm 25.5 NE 7 11 1008.4 - 0.0 - - 10 - - - -
20/11:30am 24.7 E 6 8 1008.8 - 0.0 - - 10 - - - -
20/11:00am 23.6 E 6 8 1009.2 - 0.0 - - 10 - - - -
20/10:30am 22.7 ESE 6 8 1009.8 - 0.0 - - 10 - - - -
20/10:00am 22.2 ESE 5 7 1010.2 - 0.0 - - 10 - - - -
20/09:30am 21.4 E 4 6 1010.8 - 0.0 - - 10 - - - -
20/09:00am 18.8 ENE 1 6 1011.2 - 0.0 - - 10 - - - -
20/08:30am 16.8 CALM 0 0 1011.6 - 0.0 - - 10 - - - -
20/08:00am 14.9 SSW 4 6 1011.6 - 0.0 - - 10 - - - -
20/07:30am 15.1 CALM 0 0 1011.6 - 0.0 - - 10 - - - -
20/07:00am 13.3 CALM 0 0 1011.9 - 0.0 - - 10 - - - -
20/06:30am 12.1 CALM 0 0 1011.7 - 0.0 - - 10 - - - -
20/06:00am 11.9 CALM 0 0 1011.9 - 0.0 - Mostly clear 9 - - - -
20/05:30am 12.1 CALM 0 0 1011.8 - 0.0 - - 10 - - - -
20/05:00am 12.5 CALM 0 0 1011.6 - 0.0 - - 8 - - - -
20/04:30am 12.3 CALM 0 0 1011.8 - 0.0 - - 8 - - - -
20/04:26am 12.6 CALM 0 0 1011.9 - 0.0 - - 9 - - - -
20/04:00am 12.0 CALM 0 0 1012.2 - 0.0 - - 3 - - - -
20/03:51am 12.4 CALM 0 0 1012.3 - 0.0 - - 5 - - - -
20/03:39am 12.6 CALM 0 0 1012.6 - 0.0 - - 10 - - - -
20/03:30am 12.8 CALM 0 0 1012.7 - 0.0 - - 6 - - - -
20/03:00am 12.3 CALM 0 0 1012.7 - 0.0 - - 2 - - - -
20/02:30am 13.0 CALM 0 0 1013.0 - 0.0 - - 3 - - - -
20/02:26am 13.4 CALM 0 0 1013.1 - 0.0 - - 5 - - - -
20/02:00am 14.0 CALM 0 0 1013.3 - 0.0 - - 8 - - - -
20/01:30am 14.7 NW 5 6 1013.7 - 0.0 - - 10 - - - -
20/01:00am 14.4 CALM 0 0 1014.5 - 0.0 - - 8 - - - -
20/12:30am 14.6 CALM 0 0 1014.5 - 0.0 - - 10 - - - -
20/12:00am 15.4 CALM 0 0 1014.9 - 0.0 - - 10 - - - -
 
Date/Time
EDT
Temp

°C
Wind Pressure Rain
since 9am
mm
Weather Cloud Vis
km
Sea
Height
m
Swell
Dir
 
Speed
knots
Gust
knots
hPa Trend Height
m
Period
s
Dir
19/11:30pm 16.3 NW 5 6 1015.1 - 0.0 - - 10 - - - -
19/11:00pm 16.8 CALM 0 0 1015.2 - 0.0 - Partly cloudy 10 - - - -
19/10:30pm 17.5 W 3 5 1015.5 - 0.0 - Cloudy 10 - - - -
19/10:09pm 16.8 CALM 0 3 1015.7 - 0.0 - Partly cloudy 10 - - - -
19/10:00pm 16.7 CALM 0 0 1015.8 - 0.0 - Partly cloudy 10 - - - -
19/09:52pm 17.0 CALM 0 3 1015.8 - 0.0 - Partly cloudy 10 - - - -
19/09:30pm 17.0 N 2 5 1016.0 - 0.0 - - 10 - - - -
19/09:00pm 17.4 N 1 5 1015.4 - 0.0 - - 10 - - - -
19/08:30pm 18.0 CALM 0 0 1015.6 - 0.0 - - 10 - - - -

Other Formats:

Comma delimited format used in spreadsheet applications
http://www.bom.gov.au/fwo/IDN60701/IDN60701.95929.axf

JavaScript Object Notation format (JSON) in row-major order
http://www.bom.gov.au/fwo/IDN60701/IDN60701.95929.json